Time;durP1;ratioP1;P1;durP2;ratioP2;P2;SDS_P1;SDS_P2;PMS_P1;PMS_P2;Temp;Humidity;BMP_temperature;BMP_pressure;BME280_temperature;BME280_humidity;BME280_pressure;Samples;Min_cycle;Max_cycle;Signal;HPM_P1;HPM_P2
2021/12/18 00:01:42;;;;;;;1.83;1.55;;;31.60;97.10;;;;;;5103523;28;20077;-76
2021/12/18 00:04:10;;;;;;;2.45;1.25;;;31.90;97.30;;;;;;5091682;28;20036;-76
2021/12/18 00:06:37;;;;;;;5.55;2.10;;;32.10;95.90;;;;;;5106497;28;20076;-73
2021/12/18 00:09:05;;;;;;;5.18;1.35;;;32.00;96.10;;;;;;5113690;28;20351;-74
2021/12/18 00:11:33;;;;;;;6.47;1.38;;;31.60;96.30;;;;;;5112754;28;20031;-76
2021/12/18 00:14:01;;;;;;;1.85;1.00;;;31.30;96.40;;;;;;5110846;28;20043;-76
2021/12/18 00:16:28;;;;;;;5.15;1.60;;;31.40;97.00;;;;;;5111455;28;20418;-77
2021/12/18 00:18:58;;;;;;;3.63;1.63;;;31.50;96.50;;;;;;5110961;28;20035;-76
2021/12/18 00:21:25;;;;;;;2.25;1.35;;;32.00;95.70;;;;;;5108371;28;20027;-78
2021/12/18 00:23:53;;;;;;;1.85;0.93;;;32.30;95.00;;;;;;5111288;28;20024;-79
2021/12/18 00:26:21;;;;;;;3.17;1.10;;;32.60;95.60;;;;;;5108525;28;20020;-76
2021/12/18 00:28:49;;;;;;;2.13;0.90;;;33.00;94.60;;;;;;5109336;28;20076;-75
2021/12/18 00:31:16;;;;;;;5.47;1.40;;;33.20;94.30;;;;;;5100536;28;20022;-76
2021/12/18 00:33:44;;;;;;;4.03;1.10;;;33.40;93.60;;;;;;5091017;28;20066;-77
2021/12/18 00:36:11;;;;;;;2.53;1.13;;;33.40;93.60;;;;;;5109155;28;20695;-74
2021/12/18 00:38:40;;;;;;;2.42;1.10;;;33.60;93.30;;;;;;5102729;28;20090;-78
2021/12/18 00:44:00;;;;;;;6.93;0.85;;;33.50;93.00;;;;;;5109095;28;20032;-76
2021/12/18 00:46:24;;;;;;;1.17;0.70;;;33.60;92.80;;;;;;5103506;28;20027;-78
2021/12/18 00:48:52;;;;;;;1.33;0.70;;;33.80;92.90;;;;;;5109243;28;20059;-79
2021/12/18 00:51:19;;;;;;;2.05;1.50;;;33.90;91.90;;;;;;5110437;28;20051;-78
2021/12/18 00:53:46;;;;;;;2.33;1.00;;;33.90;91.30;;;;;;5094616;28;20024;-79
2021/12/18 00:56:14;;;;;;;4.38;2.20;;;34.10;91.40;;;;;;5101817;28;20028;-79
2021/12/18 00:58:42;;;;;;;1.95;0.98;;;34.30;91.60;;;;;;5114579;28;20073;-79
2021/12/18 01:01:10;;;;;;;3.17;0.95;;;34.50;91.10;;;;;;5113824;28;20020;-83
2021/12/18 01:03:41;;;;;;;3.50;1.35;;;34.60;90.80;;;;;;5114628;28;20023;-82
2021/12/18 01:06:08;;;;;;;3.10;0.93;;;34.60;90.80;;;;;;5111021;28;20081;-77
2021/12/18 01:08:36;;;;;;;2.67;0.90;;;34.80;90.20;;;;;;5113760;28;20027;-77
2021/12/18 01:16:23;;;;;;;2.30;1.35;;;35.80;87.50;;;;;;5098351;28;20436;-76
2021/12/18 01:24:21;;;;;;;5.30;1.02;;;36.30;84.60;;;;;;5108163;28;20058;-78
2021/12/18 01:26:48;;;;;;;0.70;0.63;;;36.40;84.90;;;;;;5102910;28;20555;-81
2021/12/18 01:29:15;;;;;;;2.63;1.00;;;36.50;84.10;;;;;;5107988;28;20032;-77
2021/12/18 01:31:43;;;;;;;1.85;0.65;;;36.60;85.00;;;;;;5107704;28;20032;-79
2021/12/18 01:34:10;;;;;;;9.85;0.93;;;36.70;82.10;;;;;;5106076;28;20110;-76
2021/12/18 01:36:38;;;;;;;3.25;1.10;;;36.80;81.40;;;;;;5108974;28;20034;-77
2021/12/18 01:39:05;;;;;;;2.35;0.90;;;36.70;81.30;;;;;;5096930;28;20048;-76
2021/12/18 01:41:42;;;;;;;0.90;0.45;;;36.80;80.20;;;;;;5111401;28;20374;-77
2021/12/18 01:52:23;;;;;;;;;;;37.60;78.40;;;;;;5101954;28;20109;-78
2021/12/18 01:54:50;;;;;;;1.00;0.50;;;37.80;74.80;;;;;;5107982;28;20362;-76
2021/12/18 01:57:18;;;;;;;2.90;1.67;;;37.70;75.20;;;;;;5106754;28;20110;-80
2021/12/18 01:59:48;;;;;;;3.83;1.30;;;37.90;74.50;;;;;;5111644;28;20030;-79
2021/12/18 02:02:16;;;;;;;3.75;1.00;;;38.20;73.40;;;;;;5107823;28;20065;-79
2021/12/18 02:04:43;;;;;;;1.63;0.65;;;38.10;74.10;;;;;;5108758;28;20500;-75
2021/12/18 02:07:12;;;;;;;1.42;0.60;;;38.20;72.60;;;;;;5109826;28;20035;-78
2021/12/18 02:12:10;;;;;;;3.47;1.05;;;38.60;72.50;;;;;;5106748;28;20429;-77
2021/12/18 02:20:24;;;;;;;1.77;0.60;;;38.90;69.80;;;;;;5100888;28;20390;-80
2021/12/18 02:22:55;;;;;;;0.70;0.47;;;38.80;71.80;;;;;;5105642;28;20027;-79
2021/12/18 02:25:24;;;;;;;1.38;0.43;;;39.00;69.80;;;;;;5108673;28;20039;-77
2021/12/18 02:27:55;;;;;;;2.65;0.65;;;39.10;68.60;;;;;;5111146;28;20028;-76
2021/12/18 02:30:23;;;;;;;3.33;0.80;;;39.20;69.30;;;;;;5109181;28;20402;-77
2021/12/18 02:32:52;;;;;;;2.75;1.25;;;39.40;68.20;;;;;;5112174;28;20031;-78
2021/12/18 02:35:30;;;;;;;1.42;0.80;;;39.70;69.10;;;;;;5107061;28;20090;-77
2021/12/18 02:38:20;;;;;;;1.55;0.50;;;39.90;68.20;;;;;;5099080;28;20454;-75
2021/12/18 02:43:16;;;;;;;1.85;0.57;;;39.60;69.30;;;;;;5112803;28;20024;-77
2021/12/18 02:45:44;;;;;;;1.83;0.40;;;39.50;66.20;;;;;;5109084;28;20364;-75
2021/12/18 02:48:11;;;;;;;3.42;0.70;;;39.20;66.10;;;;;;5112275;28;20039;-76
2021/12/18 02:50:41;;;;;;;0.95;0.85;;;39.10;67.60;;;;;;5109597;28;20390;-76
2021/12/18 02:53:09;;;;;;;2.35;0.60;;;39.30;66.80;;;;;;5109933;28;20410;-75
2021/12/18 02:55:36;;;;;;;1.20;0.60;;;39.50;66.50;;;;;;5102090;28;20471;-76
2021/12/18 02:58:03;;;;;;;3.25;0.90;;;39.70;66.50;;;;;;5107480;28;20099;-77
2021/12/18 03:00:31;;;;;;;0.70;0.50;;;39.60;66.30;;;;;;5104718;28;20024;-75
2021/12/18 03:03:04;;;;;;;1.45;0.50;;;39.50;65.80;;;;;;5106516;28;20034;-77
2021/12/18 03:05:39;;;;;;;1.30;0.60;;;39.60;65.20;;;;;;5109346;28;20024;-77
2021/12/18 03:08:13;;;;;;;1.63;0.57;;;39.70;64.10;;;;;;5105552;28;20034;-79
2021/12/18 03:25:17;;;;;;;1.60;0.70;;;38.90;64.80;;;;;;5060103;28;20389;-78
2021/12/18 03:27:45;;;;;;;8.20;0.68;;;39.10;66.20;;;;;;5109199;28;20139;-78
2021/12/18 03:30:13;;;;;;;1.88;0.50;;;39.50;66.10;;;;;;5109254;28;20034;-77
2021/12/18 03:32:41;;;;;;;3.75;0.77;;;39.90;65.00;;;;;;5097863;28;20767;-77
2021/12/18 03:35:09;;;;;;;2.78;0.60;;;40.30;66.30;;;;;;5091931;28;20172;-77
2021/12/18 03:37:37;;;;;;;1.65;0.80;;;40.40;63.60;;;;;;5108572;28;20034;-76
2021/12/18 03:40:07;;;;;;;1.52;0.45;;;40.70;64.30;;;;;;5110716;28;20036;-76
2021/12/18 03:42:35;;;;;;;1.50;0.70;;;40.40;63.10;;;;;;5114220;28;20520;-76
2021/12/18 03:45:04;;;;;;;1.90;0.70;;;40.20;63.70;;;;;;5104005;28;20052;-77
2021/12/18 03:47:32;;;;;;;2.70;0.70;;;40.00;63.30;;;;;;5114421;28;20359;-77
2021/12/18 03:49:59;;;;;;;0.55;0.40;;;39.60;62.60;;;;;;5112326;28;20080;-78
2021/12/18 03:52:27;;;;;;;0.95;0.60;;;39.20;62.30;;;;;;5109806;28;20047;-81
2021/12/18 03:54:54;;;;;;;2.05;0.70;;;39.10;62.00;;;;;;5113031;27;20027;-78
2021/12/18 03:57:21;;;;;;;2.13;0.55;;;39.30;63.00;;;;;;5116634;28;20035;-79
2021/12/18 03:59:49;;;;;;;1.05;0.40;;;39.70;63.00;;;;;;5106785;28;20028;-80
2021/12/18 04:02:16;;;;;;;1.95;1.20;;;40.10;62.00;;;;;;5109093;28;20465;-79
2021/12/18 04:04:44;;;;;;;2.72;0.43;;;40.50;61.20;;;;;;5113260;28;20028;-79
2021/12/18 04:07:11;;;;;;;1.40;0.70;;;40.60;61.50;;;;;;5102801;28;20065;-81
2021/12/18 04:09:39;;;;;;;2.15;1.13;;;40.60;62.20;;;;;;5106547;28;20026;-83
2021/12/18 04:12:06;;;;;;;1.15;0.50;;;40.70;61.90;;;;;;5112689;27;20145;-81
2021/12/18 04:14:34;;;;;;;1.42;0.50;;;40.70;60.40;;;;;;5104987;28;20470;-78
2021/12/18 04:17:03;;;;;;;2.25;0.57;;;40.80;60.30;;;;;;5111054;28;20019;-77
2021/12/18 04:19:30;;;;;;;1.00;0.40;;;40.30;59.40;;;;;;5109904;28;20027;-79
2021/12/18 04:21:58;;;;;;;2.17;0.40;;;40.20;60.30;;;;;;5113020;28;20673;-82
2021/12/18 04:24:25;;;;;;;0.73;0.45;;;40.20;59.50;;;;;;5113284;28;20027;-79
2021/12/18 04:26:53;;;;;;;0.68;0.60;;;40.40;57.30;;;;;;5110098;27;20027;-78
2021/12/18 04:29:20;;;;;;;2.92;0.80;;;40.60;59.70;;;;;;5110978;28;20469;-80
2021/12/18 04:31:47;;;;;;;1.67;0.60;;;40.60;57.10;;;;;;5109361;28;20425;-80
2021/12/18 04:34:15;;;;;;;2.10;0.65;;;40.70;57.10;;;;;;5110168;28;20016;-76
2021/12/18 04:36:42;;;;;;;1.58;0.50;;;41.00;57.50;;;;;;5113002;28;20027;-79
2021/12/18 04:39:09;;;;;;;3.90;0.45;;;40.90;56.90;;;;;;5111482;28;20496;-79
2021/12/18 04:41:41;;;;;;;2.28;0.93;;;40.70;56.70;;;;;;5108226;28;20041;-80
2021/12/18 04:44:08;;;;;;;1.73;0.55;;;40.50;58.10;;;;;;5107994;28;20040;-79
2021/12/18 04:46:36;;;;;;;6.65;0.55;;;39.90;57.50;;;;;;5102918;28;20051;-81
2021/12/18 04:49:04;;;;;;;1.60;0.50;;;39.30;58.10;;;;;;5108978;28;20036;-79
2021/12/18 04:51:31;;;;;;;2.38;0.50;;;38.80;58.20;;;;;;5110238;27;20028;-79
2021/12/18 04:53:59;;;;;;;1.02;0.43;;;38.50;56.60;;;;;;5109474;28;20042;-78
2021/12/18 04:56:26;;;;;;;1.50;0.30;;;38.30;55.90;;;;;;5113220;28;20069;-78
2021/12/18 04:58:53;;;;;;;1.10;0.40;;;38.10;58.60;;;;;;5114620;28;20020;-82
2021/12/18 05:01:21;;;;;;;1.35;0.47;;;38.00;60.00;;;;;;5107794;28;20084;-77
2021/12/18 05:03:49;;;;;;;6.18;0.50;;;38.00;61.10;;;;;;5104201;28;20023;-81
2021/12/18 05:06:17;;;;;;;1.50;0.32;;;38.20;60.40;;;;;;5108115;28;20203;-78
2021/12/18 05:08:45;;;;;;;1.45;0.47;;;38.40;59.70;;;;;;5112966;28;20040;-80
2021/12/18 05:11:12;;;;;;;1.65;0.30;;;38.50;60.20;;;;;;5106052;28;20012;-78
2021/12/18 05:13:40;;;;;;;2.03;0.40;;;38.50;60.90;;;;;;5112847;28;20039;-80
2021/12/18 05:16:07;;;;;;;2.25;0.40;;;38.70;59.30;;;;;;5109584;27;20013;-78
2021/12/18 05:18:35;;;;;;;1.48;0.40;;;39.00;59.80;;;;;;5108490;27;20030;-81
2021/12/18 05:21:02;;;;;;;1.52;0.70;;;38.90;58.60;;;;;;5088502;28;20028;-80
2021/12/18 05:23:29;;;;;;;1.02;0.40;;;38.60;58.70;;;;;;5107931;28;20039;-78
2021/12/18 05:25:57;;;;;;;2.38;0.60;;;38.40;57.90;;;;;;5112012;28;20020;-78
2021/12/18 05:28:24;;;;;;;1.95;0.50;;;38.20;58.80;;;;;;5112247;28;20394;-74
2021/12/18 05:30:51;;;;;;;0.95;0.32;;;38.10;58.50;;;;;;5102724;28;20024;-80
2021/12/18 05:33:19;;;;;;;2.20;0.50;;;38.00;59.70;;;;;;5104157;28;20039;-79
2021/12/18 05:35:47;;;;;;;1.42;0.30;;;38.00;59.40;;;;;;5113077;28;20051;-84
2021/12/18 05:38:14;;;;;;;0.88;0.30;;;38.10;56.20;;;;;;5110589;28;20402;-78
2021/12/18 05:40:41;;;;;;;3.17;0.30;;;38.20;55.60;;;;;;5107982;28;20047;-83
2021/12/18 05:43:10;;;;;;;1.67;0.43;;;38.50;56.20;;;;;;5109293;27;20036;-78
2021/12/18 05:45:38;;;;;;;2.95;0.63;;;38.90;54.90;;;;;;5103522;28;20161;-80
2021/12/18 05:48:06;;;;;;;0.90;0.30;;;38.90;53.40;;;;;;5112239;28;20031;-80
2021/12/18 05:50:34;;;;;;;3.30;0.57;;;38.90;53.20;;;;;;5099936;28;20024;-82
2021/12/18 05:53:01;;;;;;;0.40;0.28;;;38.80;53.70;;;;;;5095596;28;20473;-79
2021/12/18 05:55:30;;;;;;;1.40;0.60;;;38.90;53.70;;;;;;5109019;27;20062;-79
2021/12/18 05:57:57;;;;;;;6.88;0.65;;;39.00;53.00;;;;;;5093658;28;20394;-77
2021/12/18 06:00:25;;;;;;;4.95;0.73;;;39.20;54.10;;;;;;5100593;28;20027;-75
2021/12/18 06:02:52;;;;;;;1.48;0.47;;;39.40;54.10;;;;;;5110121;28;20024;-76
2021/12/18 06:05:20;;;;;;;2.58;0.60;;;39.70;52.60;;;;;;5095623;28;20486;-77
2021/12/18 06:07:58;;;;;;;2.85;0.85;;;39.70;52.60;;;;;;5102540;28;20027;-73
2021/12/18 06:10:32;;;;;;;0.98;0.20;;;39.90;52.90;;;;;;5098992;28;20098;-78
2021/12/18 06:13:02;;;;;;;1.50;0.20;;;40.00;52.20;;;;;;5100334;28;20126;-76
2021/12/18 06:15:31;;;;;;;1.95;0.43;;;40.00;52.40;;;;;;5106739;28;20132;-79
2021/12/18 06:18:00;;;;;;;1.05;0.40;;;40.00;52.50;;;;;;5110812;28;20601;-80
2021/12/18 06:20:28;;;;;;;1.85;0.30;;;40.00;52.60;;;;;;5105466;28;20100;-79
2021/12/18 06:22:57;;;;;;;0.47;0.20;;;40.00;52.40;;;;;;5112289;28;20023;-81
2021/12/18 06:25:24;;;;;;;3.00;0.95;;;39.80;52.30;;;;;;5093958;28;20043;-82
2021/12/18 06:27:52;;;;;;;0.70;0.30;;;39.50;52.30;;;;;;5113103;28;20107;-80
2021/12/18 06:30:19;;;;;;;0.95;0.30;;;39.60;52.80;;;;;;5109944;28;20078;-81
2021/12/18 06:32:47;;;;;;;1.60;0.98;;;39.60;53.10;;;;;;5112412;28;20042;-82
2021/12/18 06:35:15;;;;;;;1.20;0.30;;;39.50;52.90;;;;;;5107895;28;20111;-82
2021/12/18 06:37:42;;;;;;;1.25;0.60;;;39.50;53.30;;;;;;5109310;28;20063;-84
2021/12/18 06:40:13;;;;;;;2.75;0.43;;;39.60;55.40;;;;;;5104309;28;20040;-83
2021/12/18 06:42:42;;;;;;;0.60;0.30;;;39.60;56.40;;;;;;5109731;28;20074;-79
2021/12/18 06:45:11;;;;;;;1.00;0.50;;;39.20;56.50;;;;;;5112709;28;20368;-82
2021/12/18 06:47:39;;;;;;;0.98;0.20;;;39.00;57.40;;;;;;5105055;28;20118;-79
2021/12/18 06:50:07;;;;;;;0.80;0.28;;;38.90;59.40;;;;;;5110758;28;20490;-78
2021/12/18 06:52:34;;;;;;;0.80;0.30;;;38.90;52.40;;;;;;5105863;28;20450;-79
2021/12/18 06:55:02;;;;;;;2.75;0.77;;;38.80;52.50;;;;;;5109188;28;20023;-78
2021/12/18 06:57:29;;;;;;;1.50;0.30;;;38.80;53.50;;;;;;5109644;28;20019;-77
2021/12/18 06:59:56;;;;;;;2.00;0.65;;;38.80;53.90;;;;;;5104149;28;20032;-75
2021/12/18 07:02:24;;;;;;;1.95;0.63;;;38.80;54.40;;;;;;5104058;28;20015;-76
2021/12/18 07:04:51;;;;;;;1.88;0.50;;;38.80;54.60;;;;;;5107023;28;20050;-80
2021/12/18 07:07:19;;;;;;;1.20;0.30;;;38.80;54.60;;;;;;5107067;28;20486;-78
2021/12/18 07:09:46;;;;;;;1.98;0.30;;;38.70;54.50;;;;;;5096840;28;20039;-79
2021/12/18 07:12:13;;;;;;;1.00;0.60;;;38.60;53.50;;;;;;5108924;28;20180;-79
2021/12/18 07:14:41;;;;;;;1.00;0.43;;;38.50;54.80;;;;;;5109033;28;20133;-83
2021/12/18 07:17:08;;;;;;;0.90;0.43;;;38.40;56.90;;;;;;5107086;28;20064;-80
2021/12/18 07:19:36;;;;;;;1.55;0.60;;;38.30;58.50;;;;;;5105874;28;20089;-80
2021/12/18 07:22:04;;;;;;;0.77;0.60;;;38.30;59.00;;;;;;5102451;28;20027;-80
2021/12/18 07:24:31;;;;;;;1.65;0.40;;;38.20;59.70;;;;;;5106195;28;20027;-79
2021/12/18 07:26:59;;;;;;;0.82;0.55;;;37.80;59.20;;;;;;5100948;28;20036;-78
2021/12/18 07:29:26;;;;;;;1.13;0.30;;;37.50;60.20;;;;;;5106623;28;20016;-80
2021/12/18 07:31:54;;;;;;;0.30;0.30;;;37.20;60.40;;;;;;5105096;28;20062;-79
2021/12/18 07:34:22;;;;;;;1.10;0.43;;;36.90;60.90;;;;;;5110622;28;20088;-81
2021/12/18 07:36:49;;;;;;;1.90;0.40;;;36.60;61.50;;;;;;5109378;28;20061;-79
2021/12/18 07:39:17;;;;;;;2.40;0.30;;;36.50;61.80;;;;;;5107106;28;20044;-81
2021/12/18 07:41:44;;;;;;;3.30;0.40;;;36.30;62.20;;;;;;5099856;28;20024;-83
2021/12/18 07:44:12;;;;;;;0.57;0.50;;;36.20;62.50;;;;;;5103304;28;20020;-84
2021/12/18 07:46:40;;;;;;;1.27;0.50;;;36.10;62.70;;;;;;5106871;28;20161;-81
2021/12/18 07:49:08;;;;;;;1.25;0.95;;;36.00;62.40;;;;;;5086018;28;20378;-82
2021/12/18 07:51:36;;;;;;;1.20;0.45;;;36.10;62.50;;;;;;5109588;28;20028;-80
2021/12/18 07:54:05;;;;;;;1.42;0.30;;;36.10;62.60;;;;;;5110828;28;20415;-81
2021/12/18 07:56:34;;;;;;;1.05;0.40;;;36.10;62.40;;;;;;5107178;28;20102;-81
2021/12/18 07:59:02;;;;;;;0.43;0.30;;;36.10;62.50;;;;;;5105328;28;20031;-81
2021/12/18 08:01:30;;;;;;;1.50;0.60;;;36.00;62.20;;;;;;5110266;28;20066;-82
2021/12/18 08:03:57;;;;;;;2.38;0.40;;;35.90;62.50;;;;;;5106242;28;20035;-79
2021/12/18 08:06:25;;;;;;;1.08;0.40;;;35.80;62.50;;;;;;5088287;28;20024;-80
2021/12/18 08:08:52;;;;;;;1.40;0.47;;;35.70;63.10;;;;;;5109026;28;20111;-76
2021/12/18 08:11:19;;;;;;;1.52;0.40;;;35.60;63.40;;;;;;5104126;28;20069;-80
2021/12/18 08:13:47;;;;;;;1.23;0.45;;;35.60;63.70;;;;;;5106587;28;20378;-80
2021/12/18 08:16:14;;;;;;;2.28;0.50;;;35.50;64.00;;;;;;5102520;28;20070;-80
2021/12/18 08:18:41;;;;;;;3.28;0.52;;;35.30;63.80;;;;;;5103298;28;20028;-80
2021/12/18 08:21:09;;;;;;;2.88;0.63;;;35.30;64.00;;;;;;5104873;28;20107;-82
2021/12/18 08:23:36;;;;;;;0.82;0.40;;;35.20;64.10;;;;;;5106793;28;20028;-82
2021/12/18 08:26:04;;;;;;;2.00;1.02;;;35.10;64.30;;;;;;5104537;28;20043;-81
2021/12/18 08:28:31;;;;;;;2.05;0.50;;;35.10;64.40;;;;;;5110656;27;20023;-79
2021/12/18 08:30:59;;;;;;;0.40;0.40;;;35.00;64.40;;;;;;5111159;28;20035;-78
2021/12/18 08:33:26;;;;;;;1.42;0.80;;;34.90;64.60;;;;;;5113743;28;20104;-76
2021/12/18 08:35:53;;;;;;;2.42;0.55;;;34.80;64.70;;;;;;5110870;28;20040;-80
2021/12/18 08:38:21;;;;;;;1.42;0.50;;;34.80;64.70;;;;;;5110525;28;20023;-79
2021/12/18 08:40:50;;;;;;;2.70;0.40;;;34.80;64.80;;;;;;5109392;28;20675;-81
2021/12/18 08:43:17;;;;;;;3.08;0.60;;;34.70;65.00;;;;;;5110000;28;20024;-83
2021/12/18 08:45:45;;;;;;;0.50;0.40;;;34.60;65.30;;;;;;5106848;28;20028;-81
2021/12/18 08:48:15;;;;;;;1.08;0.52;;;34.60;65.50;;;;;;5108666;28;20046;-81
2021/12/18 08:50:43;;;;;;;1.05;0.50;;;34.50;65.80;;;;;;5112150;28;20032;-81
2021/12/18 08:53:10;;;;;;;1.92;0.70;;;34.40;65.60;;;;;;5110732;28;20027;-81
2021/12/18 08:55:37;;;;;;;2.80;0.43;;;34.40;66.10;;;;;;5112636;28;20023;-82
2021/12/18 08:58:05;;;;;;;1.50;0.50;;;34.30;66.30;;;;;;5113820;28;20034;-81
2021/12/18 09:00:33;;;;;;;1.08;0.50;;;34.10;66.40;;;;;;5110684;28;20012;-80
2021/12/18 09:03:00;;;;;;;1.80;0.63;;;34.10;66.60;;;;;;5108957;28;20048;-81
2021/12/18 09:05:29;;;;;;;1.40;0.60;;;34.00;66.90;;;;;;5108474;28;20016;-83
2021/12/18 09:07:57;;;;;;;3.42;0.45;;;33.90;67.40;;;;;;5107938;28;20081;-83
2021/12/18 09:10:25;;;;;;;0.80;0.40;;;33.80;67.70;;;;;;5113734;28;20020;-80
2021/12/18 09:12:54;;;;;;;1.23;0.52;;;33.70;68.20;;;;;;5110624;28;20521;-81
2021/12/18 09:15:21;;;;;;;1.02;0.43;;;33.50;68.30;;;;;;5110626;28;20039;-80
2021/12/18 09:17:49;;;;;;;1.83;0.50;;;33.50;68.60;;;;;;5113372;28;20130;-81
2021/12/18 09:20:17;;;;;;;2.35;0.60;;;33.30;69.00;;;;;;5106173;28;20021;-81
2021/12/18 09:22:44;;;;;;;0.47;0.32;;;33.20;69.20;;;;;;5110672;28;20024;-76
2021/12/18 09:25:12;;;;;;;2.47;0.50;;;33.10;69.60;;;;;;5105996;28;20032;-77
2021/12/18 09:27:40;;;;;;;0.68;0.43;;;33.00;69.80;;;;;;5109970;28;20093;-81
2021/12/18 09:30:11;;;;;;;1.50;0.70;;;32.90;69.90;;;;;;5105732;28;20023;-79
2021/12/18 09:32:39;;;;;;;1.30;0.40;;;32.90;70.00;;;;;;5104960;28;20502;-78
2021/12/18 09:35:08;;;;;;;1.27;0.50;;;32.80;70.30;;;;;;5108409;28;20062;-80
2021/12/18 09:37:35;;;;;;;0.60;0.35;;;32.80;70.50;;;;;;5101091;28;20433;-80
2021/12/18 09:40:05;;;;;;;2.70;0.60;;;32.70;70.80;;;;;;5108755;28;20083;-80
2021/12/18 09:42:33;;;;;;;2.30;0.38;;;32.60;71.00;;;;;;5103378;28;20051;-81
2021/12/18 09:45:00;;;;;;;1.58;1.20;;;32.60;70.90;;;;;;5111891;28;20448;-81
2021/12/18 09:47:28;;;;;;;1.08;0.40;;;32.50;70.90;;;;;;5113606;28;20035;-81
2021/12/18 09:49:56;;;;;;;2.42;0.70;;;32.50;70.90;;;;;;5117941;28;20028;-80
2021/12/18 09:52:25;;;;;;;1.13;0.50;;;32.60;70.80;;;;;;5107668;28;20041;-81
2021/12/18 09:54:56;;;;;;;4.20;0.63;;;32.70;70.60;;;;;;5103075;28;20027;-79
2021/12/18 09:57:25;;;;;;;3.22;0.50;;;32.60;70.70;;;;;;5111162;28;20028;-77
2021/12/18 09:59:52;;;;;;;2.60;0.85;;;32.70;70.70;;;;;;5107105;28;20168;-80
2021/12/18 10:02:20;;;;;;;1.08;0.60;;;32.70;70.80;;;;;;5109096;28;20030;-82
2021/12/18 10:04:48;;;;;;;2.25;0.80;;;32.60;70.70;;;;;;5111247;28;20111;-82
2021/12/18 10:07:19;;;;;;;2.67;1.27;;;32.60;70.80;;;;;;5107970;28;20485;-82
2021/12/18 10:09:48;;;;;;;1.48;0.80;;;32.60;70.80;;;;;;5105025;28;20546;-81
2021/12/18 10:12:25;;;;;;;3.40;0.60;;;32.60;70.80;;;;;;5098625;28;20548;-82
2021/12/18 10:15:01;;;;;;;1.17;0.60;;;32.60;70.90;;;;;;5103908;28;20039;-79
2021/12/18 10:17:34;;;;;;;1.25;0.43;;;32.60;71.60;;;;;;5110782;28;20040;-80
2021/12/18 10:20:21;;;;;;;2.25;0.60;;;32.50;71.10;;;;;;5112261;28;20023;-79
2021/12/18 10:22:54;;;;;;;2.08;0.80;;;32.50;71.10;;;;;;5113644;28;20031;-79
2021/12/18 10:25:26;;;;;;;1.10;0.60;;;32.50;71.50;;;;;;5114566;28;20015;-80
2021/12/18 10:28:20;;;;;;;1.10;0.52;;;32.40;71.80;;;;;;5103118;28;20024;-81
2021/12/18 10:30:53;;;;;;;3.05;0.77;;;32.20;73.00;;;;;;5109212;28;20038;-80
2021/12/18 10:33:32;;;;;;;1.33;0.77;;;32.10;72.50;;;;;;5108381;28;20043;-77
2021/12/18 10:36:01;;;;;;;4.22;0.93;;;32.00;72.80;;;;;;5106940;28;20087;-80
2021/12/18 10:38:52;;;;;;;0.82;0.70;;;31.90;73.10;;;;;;5103084;28;20462;-81
2021/12/18 10:41:25;;;;;;;3.08;0.47;;;31.90;73.30;;;;;;5110376;28;20048;-81
2021/12/18 10:43:59;;;;;;;1.02;0.50;;;31.80;73.40;;;;;;5109742;28;20080;-79
2021/12/18 10:46:27;;;;;;;0.60;0.40;;;31.80;73.30;;;;;;5110910;28;20024;-81
2021/12/18 10:48:56;;;;;;;1.98;0.70;;;31.80;73.30;;;;;;5111215;28;20085;-80
2021/12/18 10:51:25;;;;;;;2.50;0.60;;;31.80;73.50;;;;;;5106151;28;20024;-78
2021/12/18 10:53:52;;;;;;;1.35;0.65;;;31.80;73.80;;;;;;5109956;28;20035;-81
2021/12/18 10:56:38;;;;;;;2.42;0.70;;;31.70;73.90;;;;;;5108037;28;20136;-79
2021/12/18 10:59:19;;;;;;;2.78;0.60;;;31.70;74.00;;;;;;5109012;28;20095;-77
2021/12/18 11:01:54;;;;;;;1.27;0.55;;;31.60;74.30;;;;;;5105150;28;20030;-81
2021/12/18 11:04:29;;;;;;;1.10;0.50;;;31.60;74.40;;;;;;5110981;28;20028;-79
2021/12/18 11:06:57;;;;;;;1.42;0.60;;;31.60;74.70;;;;;;5109683;28;20073;-80
2021/12/18 11:09:32;;;;;;;1.23;0.50;;;31.50;75.00;;;;;;5105582;28;20122;-77
2021/12/18 11:14:42;;;;;;;1.02;0.38;;;31.30;75.20;;;;;;5111348;28;20746;-78
2021/12/18 11:17:15;;;;;;;2.15;0.60;;;31.20;75.90;;;;;;5111651;28;20122;-79
2021/12/18 11:19:43;;;;;;;1.70;0.57;;;31.20;76.20;;;;;;5110679;28;20386;-80
2021/12/18 11:22:14;;;;;;;1.13;0.60;;;31.10;76.50;;;;;;5108047;28;20023;-80
2021/12/18 11:25:06;;;;;;;2.05;0.60;;;31.00;76.30;;;;;;5101782;28;20042;-82
2021/12/18 11:27:35;;;;;;;0.95;0.55;;;31.00;76.70;;;;;;5099426;28;20180;-82
2021/12/18 11:30:08;;;;;;;1.17;0.63;;;31.00;76.70;;;;;;5109943;28;20034;-81
2021/12/18 11:32:40;;;;;;;1.75;0.82;;;31.00;76.60;;;;;;5092380;28;20564;-81
2021/12/18 11:35:14;;;;;;;4.13;0.60;;;31.00;76.30;;;;;;5091398;28;20028;-80
2021/12/18 11:37:44;;;;;;;0.30;0.30;;;31.00;76.00;;;;;;5108484;28;20040;-79
2021/12/18 11:40:15;;;;;;;2.33;0.65;;;31.00;75.90;;;;;;5111529;28;20444;-82
2021/12/18 11:42:42;;;;;;;1.65;0.60;;;31.00;75.70;;;;;;5107826;28;20031;-82
2021/12/18 11:45:10;;;;;;;3.13;0.55;;;31.10;75.50;;;;;;5111309;28;20458;-79
2021/12/18 11:47:40;;;;;;;1.92;0.50;;;31.10;75.50;;;;;;5108032;28;20067;-80
2021/12/18 11:50:10;;;;;;;0.90;0.50;;;31.20;75.30;;;;;;5111486;28;20081;-82
2021/12/18 11:53:13;;;;;;;0.60;0.32;;;31.20;75.30;;;;;;5109283;28;20059;-80
2021/12/18 11:55:52;;;;;;;0.88;0.57;;;31.10;75.50;;;;;;5006972;28;20038;-80
2021/12/18 11:58:22;;;;;;;1.63;0.40;;;31.10;76.50;;;;;;5086793;28;20059;-82
2021/12/18 12:00:55;;;;;;;7.88;0.55;;;31.10;76.40;;;;;;5107001;28;20042;-81
2021/12/18 12:03:40;;;;;;;2.08;0.88;;;30.90;73.70;;;;;;5112902;28;20035;-83
2021/12/18 12:06:43;;;;;;;6.65;0.68;;;30.40;73.30;;;;;;5113870;28;20027;-82
2021/12/18 12:11:57;;;;;;;1.20;0.30;;;29.20;78.80;;;;;;5113645;28;20020;-81
2021/12/18 12:14:27;;;;;;;1.23;0.38;;;28.50;82.30;;;;;;5112629;28;20084;-80
2021/12/18 12:16:58;;;;;;;2.65;0.40;;;27.80;87.30;;;;;;5110563;28;20462;-81
2021/12/18 12:19:40;;;;;;;1.13;0.20;;;27.10;91.50;;;;;;5115411;28;20031;-79
2021/12/18 12:22:12;;;;;;;2.10;0.38;;;26.50;94.90;;;;;;5113253;28;20380;-80
2021/12/18 12:25:01;;;;;;;4.55;0.40;;;25.90;98.70;;;;;;5115380;28;20452;-78
2021/12/18 12:27:34;;;;;;;2.42;1.00;;;25.40;99.90;;;;;;5113969;28;20355;-79
2021/12/18 12:30:09;;;;;;;3.70;1.02;;;24.90;99.90;;;;;;5115165;28;20386;-79
2021/12/18 12:32:37;;;;;;;1.17;0.50;;;24.60;99.90;;;;;;5096296;28;20051;-77
2021/12/18 12:35:12;;;;;;;0.40;0.20;;;24.20;99.90;;;;;;5113348;28;20436;-78
2021/12/18 12:37:48;;;;;;;0.38;0.10;;;24.00;99.90;;;;;;5113333;28;20386;-78
2021/12/18 12:40:35;;;;;;;4.55;0.40;;;23.90;99.90;;;;;;5113558;28;20117;-79
2021/12/18 12:43:15;;;;;;;0.70;0.32;;;23.80;99.90;;;;;;5110874;28;20024;-77
2021/12/18 12:45:46;;;;;;;2.90;0.40;;;23.80;99.90;;;;;;5111611;28;20397;-77
2021/12/18 12:48:13;;;;;;;1.88;0.30;;;23.70;99.90;;;;;;5114657;28;20462;-77
2021/12/18 12:50:41;;;;;;;3.47;0.57;;;23.60;99.90;;;;;;5109457;28;20038;-77
2021/12/18 12:53:10;;;;;;;3.50;0.50;;;23.50;99.90;;;;;;5114662;28;20028;-77
2021/12/18 12:55:46;;;;;;;2.72;0.50;;;23.40;99.90;;;;;;5111346;28;20697;-78
2021/12/18 12:58:25;;;;;;;2.47;0.40;;;23.20;99.90;;;;;;5102152;28;20048;-78
2021/12/18 13:00:59;;;;;;;4.10;0.60;;;23.10;99.90;;;;;;5089408;28;20050;-78
2021/12/18 13:03:36;;;;;;;3.55;0.60;;;23.00;99.90;;;;;;5113201;28;20053;-77
2021/12/18 13:06:12;;;;;;;1.70;0.60;;;23.00;99.90;;;;;;5110638;28;20046;-79
2021/12/18 13:08:42;;;;;;;2.75;0.60;;;22.90;99.90;;;;;;5103336;28;20544;-78
2021/12/18 13:11:16;;;;;;;2.45;0.80;;;23.00;99.90;;;;;;5111740;28;20043;-79
2021/12/18 13:13:43;;;;;;;3.42;0.63;;;23.00;99.90;;;;;;5113170;28;20047;-77
2021/12/18 13:16:14;;;;;;;1.77;0.80;;;23.10;99.90;;;;;;5111080;28;20119;-74
2021/12/18 13:18:43;;;;;;;2.60;0.60;;;23.00;99.90;;;;;;5111162;28;20032;-76
2021/12/18 13:21:18;;;;;;;6.22;1.00;;;23.10;99.90;;;;;;5109559;28;20043;-77
2021/12/18 13:23:57;;;;;;;0.90;0.52;;;23.10;99.90;;;;;;5110585;28;20019;-75
2021/12/18 13:26:41;;;;;;;6.57;0.80;;;23.20;99.90;;;;;;5104316;28;20019;-77
2021/12/18 13:29:15;;;;;;;2.67;0.50;;;23.20;99.90;;;;;;5102923;28;20049;-76
2021/12/18 13:31:58;;;;;;;0.88;0.45;;;23.20;99.90;;;;;;5098582;28;20024;-79
2021/12/18 13:34:32;;;;;;;0.98;0.40;;;23.30;99.90;;;;;;5106363;28;20043;-78
2021/12/18 13:37:04;;;;;;;4.15;0.50;;;23.20;99.90;;;;;;5111373;28;20027;-75
2021/12/18 13:39:41;;;;;;;3.42;0.60;;;23.10;99.90;;;;;;5111221;28;20062;-76
2021/12/18 13:42:11;;;;;;;4.70;1.00;;;22.90;99.90;;;;;;5111496;28;20240;-76
2021/12/18 13:44:45;;;;;;;4.82;0.70;;;22.80;99.90;;;;;;5098840;28;20028;-76
2021/12/18 13:47:23;;;;;;;2.70;0.60;;;22.80;99.90;;;;;;5112397;28;20016;-76
2021/12/18 13:50:00;;;;;;;2.70;0.77;;;22.70;99.90;;;;;;5099387;28;20523;-77
2021/12/18 13:52:57;;;;;;;2.72;0.82;;;22.70;99.90;;;;;;5104555;28;20036;-77
2021/12/18 13:55:43;;;;;;;1.77;0.80;;;22.80;99.90;;;;;;5103056;28;20032;-77